Time;durP1;ratioP1;P1;durP2;ratioP2;P2;SDS_P1;SDS_P2;PMS_P1;PMS_P2;Temp;Humidity;BMP_temperature;BMP_pressure;BME280_temperature;BME280_humidity;BME280_pressure;Samples;Min_cycle;Max_cycle;Signal;HPM_P1;HPM_P2
2023/04/11 00:02:17;;;;;;;12.32;8.57;;;;;;;;;;4980548;28;20550;-80
2023/04/11 00:04:42;;;;;;;11.52;8.35;;;;;;;;;;4977021;28;20050;-80
2023/04/11 00:07:08;;;;;;;9.73;7.22;;;;;;;;;;4974509;28;20030;-80
2023/04/11 00:09:34;;;;;;;11.88;7.93;;;;;;;;;;4980308;28;20130;-80
2023/04/11 00:12:01;;;;;;;12.60;8.40;;;;;;;;;;4982868;28;20030;-81
2023/04/11 00:14:27;;;;;;;12.52;8.23;;;;;;;;;;4985057;28;20046;-81
2023/04/11 00:16:53;;;;;;;11.00;7.90;;;;;;;;;;4985311;28;20480;-79
2023/04/11 00:19:24;;;;;;;9.20;7.07;;;;;;;;;;4979027;28;20126;-80
2023/04/11 00:21:51;;;;;;;12.20;8.35;;;;;;;;;;4978733;28;20044;-81
2023/04/11 00:24:17;;;;;;;10.82;7.82;;;;;;;;;;4998799;28;20030;-80
2023/04/11 00:26:43;;;;;;;11.13;7.57;;;;;;;;;;4981337;28;20035;-80
2023/04/11 00:29:08;;;;;;;12.57;8.40;;;;;;;;;;4959209;28;21300;-79
2023/04/11 00:31:34;;;;;;;11.02;7.72;;;;;;;;;;4995485;28;20043;-80
2023/04/11 00:34:00;;;;;;;10.35;7.57;;;;;;;;;;4980456;28;20096;-81
2023/04/11 00:36:27;;;;;;;11.63;7.10;;;;;;;;;;4977525;28;20586;-80
2023/04/11 00:38:53;;;;;;;11.70;7.07;;;;;;;;;;4979072;28;20137;-80
2023/04/11 00:41:20;;;;;;;11.02;7.30;;;;;;;;;;4975955;28;20379;-81
2023/04/11 00:43:48;;;;;;;9.57;6.68;;;;;;;;;;4976695;28;20045;-80
2023/04/11 00:46:15;;;;;;;9.20;6.75;;;;;;;;;;4978237;28;20427;-79
2023/04/11 00:48:43;;;;;;;10.75;7.45;;;;;;;;;;4988650;28;20042;-80
2023/04/11 00:51:09;;;;;;;11.75;7.60;;;;;;;;;;4987332;28;20067;-81
2023/04/11 00:53:36;;;;;;;10.75;7.25;;;;;;;;;;4972817;28;20026;-81
2023/04/11 00:56:02;;;;;;;11.48;7.57;;;;;;;;;;4988375;28;20121;-81
2023/04/11 00:58:28;;;;;;;12.38;8.27;;;;;;;;;;4989959;28;20125;-81
2023/04/11 01:00:54;;;;;;;11.43;7.55;;;;;;;;;;4990280;28;20092;-81
2023/04/11 01:03:22;;;;;;;11.25;8.25;;;;;;;;;;4974191;28;20491;-80
2023/04/11 01:05:51;;;;;;;10.20;7.47;;;;;;;;;;4990763;28;20038;-80
2023/04/11 01:08:19;;;;;;;10.70;8.32;;;;;;;;;;5023105;28;20049;-80
2023/04/11 01:10:45;;;;;;;12.05;8.50;;;;;;;;;;5006169;28;20100;-79
2023/04/11 01:13:11;;;;;;;10.65;7.60;;;;;;;;;;5005992;28;20042;-80
2023/04/11 01:15:37;;;;;;;11.57;7.68;;;;;;;;;;5022418;28;20032;-80
2023/04/11 01:18:04;;;;;;;10.25;7.57;;;;;;;;;;5007672;28;20030;-80
2023/04/11 01:20:33;;;;;;;11.13;7.95;;;;;;;;;;4994637;28;20080;-80
2023/04/11 01:23:01;;;;;;;10.02;8.05;;;;;;;;;;4993581;28;20109;-80
2023/04/11 01:25:27;;;;;;;10.05;7.07;;;;;;;;;;4994450;28;20038;-81
2023/04/11 01:27:55;;;;;;;9.23;6.95;;;;;;;;;;4994021;28;20029;-79
2023/04/11 01:30:21;;;;;;;11.13;7.43;;;;;;;;;;4993321;28;20049;-79
2023/04/11 01:32:49;;;;;;;9.73;7.60;;;;;;;;;;4993378;28;20034;-80
2023/04/11 01:35:16;;;;;;;10.90;6.88;;;;;;;;;;5024787;28;20567;-80
2023/04/11 01:37:44;;;;;;;10.48;7.30;;;;;;;;;;4993246;28;20401;-80
2023/04/11 01:40:12;;;;;;;11.05;7.43;;;;;;;;;;5025834;28;20065;-80
2023/04/11 01:42:38;;;;;;;10.23;7.53;;;;;;;;;;5025987;28;20518;-80
2023/04/11 01:45:06;;;;;;;10.27;7.15;;;;;;;;;;4992634;28;20034;-81
2023/04/11 01:47:32;;;;;;;11.02;6.40;;;;;;;;;;4992836;28;20034;-80
2023/04/11 01:49:58;;;;;;;10.32;6.80;;;;;;;;;;5009063;28;20039;-81
2023/04/11 01:52:24;;;;;;;9.50;6.80;;;;;;;;;;5025710;28;20068;-79
2023/04/11 01:54:50;;;;;;;12.20;7.10;;;;;;;;;;5025598;28;20403;-78
2023/04/11 01:57:16;;;;;;;10.35;6.60;;;;;;;;;;4994608;28;20022;-80
2023/04/11 01:59:41;;;;;;;11.70;7.03;;;;;;;;;;5022272;28;20049;-79
2023/04/11 02:02:07;;;;;;;9.65;7.10;;;;;;;;;;4968500;28;20026;-79
2023/04/11 02:04:34;;;;;;;9.43;6.68;;;;;;;;;;4984210;28;20122;-80
2023/04/11 02:07:00;;;;;;;11.20;7.82;;;;;;;;;;4976915;28;20058;-80
2023/04/11 02:09:26;;;;;;;12.05;7.10;;;;;;;;;;4991449;28;20034;-80
2023/04/11 02:11:53;;;;;;;10.57;7.07;;;;;;;;;;4992409;28;20026;-80
2023/04/11 02:14:19;;;;;;;9.90;7.38;;;;;;;;;;4993979;28;20408;-80
2023/04/11 02:16:53;;;;;;;11.13;7.78;;;;;;;;;;4993178;28;20034;-80
2023/04/11 02:19:20;;;;;;;10.05;7.55;;;;;;;;;;4990502;28;20030;-79
2023/04/11 02:21:46;;;;;;;9.07;7.07;;;;;;;;;;4983051;28;20117;-80
2023/04/11 02:24:12;;;;;;;13.45;8.18;;;;;;;;;;4989889;28;20030;-80
2023/04/11 02:26:41;;;;;;;12.57;8.10;;;;;;;;;;4990655;28;20035;-80
2023/04/11 02:29:08;;;;;;;11.32;8.38;;;;;;;;;;4988931;28;20041;-79
2023/04/11 02:31:34;;;;;;;12.50;8.27;;;;;;;;;;4990983;28;20114;-80
2023/04/11 02:34:00;;;;;;;11.68;8.18;;;;;;;;;;5009412;28;20026;-80
2023/04/11 02:36:27;;;;;;;12.07;8.38;;;;;;;;;;4992695;28;20076;-79
2023/04/11 02:38:53;;;;;;;11.40;7.63;;;;;;;;;;4989785;28;20034;-81
2023/04/11 02:41:20;;;;;;;9.90;7.20;;;;;;;;;;4989034;28;20030;-80
2023/04/11 02:43:46;;;;;;;10.30;7.80;;;;;;;;;;4992424;28;20092;-80
2023/04/11 02:46:12;;;;;;;10.50;8.10;;;;;;;;;;4976024;28;20026;-81
2023/04/11 02:48:38;;;;;;;10.63;7.43;;;;;;;;;;4992542;28;20407;-80
2023/04/11 02:51:05;;;;;;;11.45;8.27;;;;;;;;;;4991468;28;20113;-80
2023/04/11 02:53:31;;;;;;;10.95;8.30;;;;;;;;;;4975139;28;20038;-79
2023/04/11 02:55:57;;;;;;;12.30;7.93;;;;;;;;;;4989475;28;20515;-80
2023/04/11 02:58:24;;;;;;;12.82;9.50;;;;;;;;;;4972838;28;20034;-79
2023/04/11 03:00:53;;;;;;;12.48;8.25;;;;;;;;;;4981939;28;20443;-80
2023/04/11 03:03:19;;;;;;;11.73;8.45;;;;;;;;;;4988422;28;20129;-80
2023/04/11 03:05:46;;;;;;;12.98;9.10;;;;;;;;;;4991802;28;20476;-80
2023/04/11 03:08:16;;;;;;;14.25;9.35;;;;;;;;;;4992475;28;20056;-80
2023/04/11 03:10:48;;;;;;;13.00;8.65;;;;;;;;;;4992254;28;20022;-80
2023/04/11 03:13:14;;;;;;;14.90;10.00;;;;;;;;;;4989188;28;20027;-80
2023/04/11 03:15:40;;;;;;;13.57;8.82;;;;;;;;;;4989818;28;20111;-79
2023/04/11 03:18:08;;;;;;;17.17;9.00;;;;;;;;;;5012531;28;20044;-81
2023/04/11 03:20:38;;;;;;;14.55;8.57;;;;;;;;;;5003171;28;20038;-79
2023/04/11 03:23:04;;;;;;;17.85;9.63;;;;;;;;;;4993992;28;20034;-79
2023/04/11 03:25:30;;;;;;;13.98;10.00;;;;;;;;;;4988951;28;20037;-81
2023/04/11 03:27:57;;;;;;;32.15;11.63;;;;;;;;;;4988867;28;20037;-81
2023/04/11 03:30:23;;;;;;;14.55;9.15;;;;;;;;;;5004478;28;20026;-81
2023/04/11 03:32:49;;;;;;;13.25;9.00;;;;;;;;;;4993255;28;20034;-80
2023/04/11 03:35:17;;;;;;;12.80;8.93;;;;;;;;;;4988328;28;20022;-80
2023/04/11 03:37:46;;;;;;;17.10;8.40;;;;;;;;;;4990530;28;20108;-80
2023/04/11 03:40:12;;;;;;;12.02;8.45;;;;;;;;;;4988142;28;20030;-79
2023/04/11 03:42:42;;;;;;;23.92;10.10;;;;;;;;;;4990283;28;20038;-79
2023/04/11 03:45:14;;;;;;;11.40;8.32;;;;;;;;;;4988482;28;20128;-80
2023/04/11 03:47:40;;;;;;;24.00;10.05;;;;;;;;;;4989824;28;20125;-81
2023/04/11 03:50:07;;;;;;;38.15;11.23;;;;;;;;;;4991558;28;20077;-79
2023/04/11 03:52:39;;;;;;;20.52;9.63;;;;;;;;;;4989873;28;20046;-80
2023/04/11 03:55:09;;;;;;;13.00;8.88;;;;;;;;;;5008049;28;20030;-81
2023/04/11 03:57:35;;;;;;;13.35;9.32;;;;;;;;;;4989130;28;20030;-80
2023/04/11 04:00:05;;;;;;;18.92;10.00;;;;;;;;;;4975366;28;20480;-80
2023/04/11 04:02:40;;;;;;;16.98;9.23;;;;;;;;;;4992888;28;20058;-79
2023/04/11 04:05:09;;;;;;;15.70;9.63;;;;;;;;;;4991003;28;20042;-80
2023/04/11 04:07:37;;;;;;;32.88;10.70;;;;;;;;;;4992677;28;20038;-80
2023/04/11 04:10:26;;;;;;;19.85;10.55;;;;;;;;;;4992291;28;20045;-80
2023/04/11 04:12:53;;;;;;;34.28;11.43;;;;;;;;;;4987662;28;20030;-80
2023/04/11 04:15:22;;;;;;;21.40;10.55;;;;;;;;;;4984822;28;20062;-79
2023/04/11 04:17:50;;;;;;;18.23;9.38;;;;;;;;;;4985129;28;20069;-79
2023/04/11 04:20:36;;;;;;;23.65;9.70;;;;;;;;;;5004824;28;20038;-80
2023/04/11 04:23:04;;;;;;;18.60;9.30;;;;;;;;;;4987599;28;20534;-80
2023/04/11 04:25:56;;;;;;;14.52;8.93;;;;;;;;;;4989016;28;20116;-80
2023/04/11 04:28:24;;;;;;;18.02;9.88;;;;;;;;;;4987210;28;20037;-80
2023/04/11 04:30:53;;;;;;;14.07;9.20;;;;;;;;;;5006796;28;20022;-79
2023/04/11 04:33:24;;;;;;;13.77;8.77;;;;;;;;;;4987335;28;20035;-80
2023/04/11 04:35:58;;;;;;;15.60;8.70;;;;;;;;;;4989477;28;20030;-79
2023/04/11 04:38:29;;;;;;;15.32;9.25;;;;;;;;;;4992229;28;20034;-79
2023/04/11 04:41:04;;;;;;;15.77;8.95;;;;;;;;;;4983607;28;20408;-79
2023/04/11 04:43:34;;;;;;;12.90;8.65;;;;;;;;;;5007330;28;20034;-79
2023/04/11 04:46:35;;;;;;;16.48;9.77;;;;;;;;;;4988662;28;20038;-79
2023/04/11 04:49:07;;;;;;;13.52;8.50;;;;;;;;;;4984261;28;20373;-79
2023/04/11 04:51:37;;;;;;;17.88;9.30;;;;;;;;;;5005372;28;20149;-81
2023/04/11 04:54:05;;;;;;;16.33;9.50;;;;;;;;;;4973612;28;20049;-80
2023/04/11 04:56:31;;;;;;;17.75;10.30;;;;;;;;;;4989309;28;20026;-80
2023/04/11 04:58:58;;;;;;;22.88;11.32;;;;;;;;;;4992540;28;20038;-80
2023/04/11 05:01:25;;;;;;;19.25;8.77;;;;;;;;;;4973636;28;20035;-79
2023/04/11 05:03:57;;;;;;;14.30;8.63;;;;;;;;;;4990259;28;20542;-79
2023/04/11 05:06:37;;;;;;;19.33;10.10;;;;;;;;;;4991691;28;20077;-80
2023/04/11 05:09:04;;;;;;;28.08;10.32;;;;;;;;;;4993973;28;20101;-79
2023/04/11 05:11:32;;;;;;;39.67;11.85;;;;;;;;;;4992954;28;20086;-79
2023/04/11 05:13:58;;;;;;;21.92;11.40;;;;;;;;;;4993837;28;20129;-80
2023/04/11 05:16:25;;;;;;;28.85;11.52;;;;;;;;;;4978162;28;20029;-80
2023/04/11 05:18:51;;;;;;;25.25;10.98;;;;;;;;;;4994144;28;20038;-81
2023/04/11 05:21:16;;;;;;;18.25;10.18;;;;;;;;;;5010751;28;20023;-79
2023/04/11 05:23:45;;;;;;;19.08;10.43;;;;;;;;;;4994539;28;20038;-82
2023/04/11 05:26:13;;;;;;;25.48;10.40;;;;;;;;;;4993644;28;20092;-81
2023/04/11 05:28:40;;;;;;;28.02;9.70;;;;;;;;;;5010274;28;20034;-82
2023/04/11 05:31:10;;;;;;;28.90;9.32;;;;;;;;;;4994384;28;20101;-81
2023/04/11 05:33:38;;;;;;;30.45;10.23;;;;;;;;;;4994022;28;20042;-80
2023/04/11 05:36:05;;;;;;;18.08;9.27;;;;;;;;;;4993790;28;20045;-81
2023/04/11 05:38:34;;;;;;;28.15;9.73;;;;;;;;;;4993646;28;20557;-81
2023/04/11 05:41:00;;;;;;;22.77;9.98;;;;;;;;;;4995268;28;20443;-81
2023/04/11 05:43:26;;;;;;;48.75;13.65;;;;;;;;;;4993665;28;20042;-81
2023/04/11 05:45:52;;;;;;;19.38;10.32;;;;;;;;;;4994594;28;20030;-81
2023/04/11 05:48:18;;;;;;;24.02;10.27;;;;;;;;;;4993771;28;20034;-82
2023/04/11 05:50:49;;;;;;;17.13;9.30;;;;;;;;;;4993452;28;20475;-82
2023/04/11 05:53:17;;;;;;;26.17;10.02;;;;;;;;;;5009518;28;20511;-81
2023/04/11 05:55:43;;;;;;;25.45;10.20;;;;;;;;;;4993432;28;20022;-81
2023/04/11 05:58:09;;;;;;;24.23;10.38;;;;;;;;;;4994412;28;20068;-78
2023/04/11 06:00:37;;;;;;;29.80;11.25;;;;;;;;;;4994460;28;20022;-80
2023/04/11 06:03:04;;;;;;;27.10;12.35;;;;;;;;;;4993953;28;20030;-80
2023/04/11 06:05:31;;;;;;;18.92;9.77;;;;;;;;;;5007568;28;20038;-79
2023/04/11 06:07:58;;;;;;;31.13;10.27;;;;;;;;;;4993833;28;20035;-78
2023/04/11 06:10:24;;;;;;;33.15;11.75;;;;;;;;;;4994194;28;20026;-79
2023/04/11 06:12:51;;;;;;;27.48;9.68;;;;;;;;;;4994209;28;20041;-78
2023/04/11 06:15:16;;;;;;;24.05;11.23;;;;;;;;;;4993888;28;20511;-79
2023/04/11 06:17:43;;;;;;;21.98;10.15;;;;;;;;;;5008869;28;20041;-78
2023/04/11 06:20:09;;;;;;;21.00;10.93;;;;;;;;;;4992629;28;20030;-77
2023/04/11 06:22:36;;;;;;;14.75;9.88;;;;;;;;;;4993590;28;20030;-78
2023/04/11 06:25:03;;;;;;;16.83;9.48;;;;;;;;;;4994319;28;20036;-79
2023/04/11 06:27:29;;;;;;;27.98;10.82;;;;;;;;;;4993795;28;20054;-78
2023/04/11 06:29:55;;;;;;;21.67;10.68;;;;;;;;;;4993671;28;20018;-77
2023/04/11 06:32:21;;;;;;;24.42;10.98;;;;;;;;;;4992490;28;20038;-78
2023/04/11 06:34:46;;;;;;;32.38;12.02;;;;;;;;;;4993692;28;20114;-77
2023/04/11 06:37:13;;;;;;;23.20;8.40;;;;;;;;;;4992834;28;20369;-79
2023/04/11 06:39:39;;;;;;;39.78;9.77;;;;;;;;;;5007509;28;20125;-80
2023/04/11 06:42:05;;;;;;;22.25;9.43;;;;;;;;;;4992974;28;20042;-80
2023/04/11 06:44:32;;;;;;;24.90;8.82;;;;;;;;;;4994057;28;20499;-79
2023/04/11 06:46:58;;;;;;;34.08;11.13;;;;;;;;;;4992303;28;20038;-77
2023/04/11 06:49:23;;;;;;;22.23;11.02;;;;;;;;;;4993185;28;20057;-78
2023/04/11 06:51:49;;;;;;;20.23;11.23;;;;;;;;;;4993367;28;20057;-78
2023/04/11 06:54:16;;;;;;;18.30;10.45;;;;;;;;;;5008112;28;20033;-79
2023/04/11 06:56:44;;;;;;;26.20;11.80;;;;;;;;;;4993877;28;20034;-79
2023/04/11 06:59:10;;;;;;;22.05;10.90;;;;;;;;;;4993669;28;20081;-81
2023/04/11 07:01:39;;;;;;;24.92;11.45;;;;;;;;;;5008522;28;20069;-81
2023/04/11 07:04:05;;;;;;;21.83;11.30;;;;;;;;;;4992539;28;20026;-80
2023/04/11 07:06:36;;;;;;;27.10;12.13;;;;;;;;;;4993113;28;20069;-80
2023/04/11 07:09:08;;;;;;;18.75;10.60;;;;;;;;;;4993255;28;20042;-81
2023/04/11 07:11:34;;;;;;;24.27;11.63;;;;;;;;;;4992717;28;20574;-81
2023/04/11 07:14:02;;;;;;;26.15;11.80;;;;;;;;;;4992232;28;20484;-81
2023/04/11 07:16:28;;;;;;;23.50;11.48;;;;;;;;;;4992672;28;20074;-82
2023/04/11 07:18:57;;;;;;;31.77;12.15;;;;;;;;;;4993158;28;20101;-81
2023/04/11 07:21:23;;;;;;;35.53;12.50;;;;;;;;;;4992681;28;20105;-80
2023/04/11 07:23:51;;;;;;;22.75;11.00;;;;;;;;;;4992812;28;20058;-79
2023/04/11 07:26:17;;;;;;;15.85;9.98;;;;;;;;;;4992150;28;20093;-83
2023/04/11 07:28:44;;;;;;;25.25;11.52;;;;;;;;;;4994087;28;20034;-83
2023/04/11 07:31:11;;;;;;;19.65;11.38;;;;;;;;;;4994418;28;20104;-82
2023/04/11 07:33:37;;;;;;;21.13;11.13;;;;;;;;;;4994313;28;20092;-81
2023/04/11 07:36:04;;;;;;;25.83;11.40;;;;;;;;;;4992211;28;20034;-82
2023/04/11 07:38:30;;;;;;;15.80;11.45;;;;;;;;;;4993025;28;20037;-82
2023/04/11 07:40:57;;;;;;;26.52;11.52;;;;;;;;;;4991185;28;20555;-81
2023/04/11 07:43:24;;;;;;;20.70;10.68;;;;;;;;;;4988274;28;20076;-83
2023/04/11 07:45:50;;;;;;;24.55;11.75;;;;;;;;;;4989904;28;20074;-82
2023/04/11 07:48:26;;;;;;;22.10;11.20;;;;;;;;;;5006996;28;20431;-82
2023/04/11 07:50:53;;;;;;;17.27;10.23;;;;;;;;;;4992116;28;20440;-80
2023/04/11 07:53:21;;;;;;;19.15;11.18;;;;;;;;;;5006963;28;20088;-79
2023/04/11 07:55:47;;;;;;;16.05;9.32;;;;;;;;;;5007473;28;20034;-79
2023/04/11 07:58:13;;;;;;;11.95;9.25;;;;;;;;;;4992091;28;20395;-79
2023/04/11 08:00:39;;;;;;;19.95;9.00;;;;;;;;;;4989644;28;20053;-81
2023/04/11 08:03:11;;;;;;;18.88;9.90;;;;;;;;;;4989410;28;20523;-79
2023/04/11 08:05:38;;;;;;;15.75;8.73;;;;;;;;;;4988960;28;20471;-81
2023/04/11 08:08:05;;;;;;;24.73;8.80;;;;;;;;;;4991629;28;20023;-81
2023/04/11 08:10:34;;;;;;;17.25;8.40;;;;;;;;;;4992233;28;20042;-81
2023/04/11 08:13:00;;;;;;;15.15;9.02;;;;;;;;;;4983403;28;20138;-81
2023/04/11 08:15:26;;;;;;;17.10;10.68;;;;;;;;;;4988641;28;20039;-81
2023/04/11 08:17:55;;;;;;;17.08;8.65;;;;;;;;;;4992683;28;20030;-83
2023/04/11 08:20:23;;;;;;;13.65;8.73;;;;;;;;;;5007721;28;20030;-83
2023/04/11 08:22:49;;;;;;;15.68;7.72;;;;;;;;;;4993003;28;20034;-79
2023/04/11 08:25:21;;;;;;;13.50;7.88;;;;;;;;;;4994136;28;20045;-81
2023/04/11 08:27:48;;;;;;;12.23;7.45;;;;;;;;;;4995914;28;20034;-83
2023/04/11 08:30:17;;;;;;;18.08;9.07;;;;;;;;;;5003348;28;20026;-82
2023/04/11 08:32:43;;;;;;;15.88;8.15;;;;;;;;;;5000840;28;20121;-84
2023/04/11 08:35:09;;;;;;;9.18;7.72;;;;;;;;;;4999636;28;20030;-84
2023/04/11 08:37:38;;;;;;;11.02;7.13;;;;;;;;;;4995957;28;20050;-82
2023/04/11 08:40:05;;;;;;;12.55;7.57;;;;;;;;;;4996334;28;20105;-83
2023/04/11 08:42:31;;;;;;;11.63;6.95;;;;;;;;;;4997487;28;20042;-83
2023/04/11 08:44:59;;;;;;;8.27;6.53;;;;;;;;;;4995533;28;20514;-85
2023/04/11 08:47:26;;;;;;;8.48;6.82;;;;;;;;;;4996524;28;20404;-85
2023/04/11 08:49:55;;;;;;;13.55;7.57;;;;;;;;;;4995828;28;20373;-83
2023/04/11 08:52:22;;;;;;;9.07;7.25;;;;;;;;;;4996850;28;20488;-83
2023/04/11 08:54:56;;;;;;;8.68;6.43;;;;;;;;;;4996082;28;20054;-83
2023/04/11 08:57:30;;;;;;;7.85;6.63;;;;;;;;;;4996874;28;20030;-83
2023/04/11 08:59:59;;;;;;;;;;;;;;;;;;4996823;28;20404;-84
2023/04/11 09:02:25;;;;;;;12.32;7.53;;;;;;;;;;4995922;28;19953;-84
2023/04/11 09:04:51;;;;;;;12.05;7.43;;;;;;;;;;4995037;28;20034;-84
2023/04/11 09:07:19;;;;;;;9.20;7.00;;;;;;;;;;5011152;28;20040;-83
2023/04/11 09:09:45;;;;;;;13.65;7.18;;;;;;;;;;4995859;28;20404;-83
2023/04/11 09:12:12;;;;;;;7.88;6.68;;;;;;;;;;4996151;28;20030;-83
2023/04/11 09:14:38;;;;;;;9.40;6.93;;;;;;;;;;4999380;28;20086;-83
2023/04/11 09:17:12;;;;;;;15.57;7.07;;;;;;;;;;4997731;28;20109;-83
2023/04/11 09:19:42;;;;;;;8.10;6.13;;;;;;;;;;4981086;28;20046;-83
2023/04/11 09:22:11;;;;;;;11.27;6.07;;;;;;;;;;4999002;28;20112;-85
2023/04/11 09:24:37;;;;;;;8.80;6.30;;;;;;;;;;4999330;28;20030;-84
2023/04/11 09:27:07;;;;;;;11.05;7.00;;;;;;;;;;4998910;28;20548;-85
2023/04/11 09:29:44;;;;;;;10.25;6.72;;;;;;;;;;4994213;28;20121;-83
2023/04/11 09:32:33;;;;;;;7.93;6.03;;;;;;;;;;4994351;28;20117;-82
2023/04/11 09:35:19;;;;;;;11.30;6.50;;;;;;;;;;4993809;28;20072;-82
2023/04/11 09:37:57;;;;;;;7.95;5.68;;;;;;;;;;4995589;28;20476;-84
2023/04/11 09:40:25;;;;;;;7.90;5.68;;;;;;;;;;4995695;28;20476;-81
2023/04/11 09:42:59;;;;;;;10.45;6.38;;;;;;;;;;4994797;28;20472;-82
2023/04/11 09:45:28;;;;;;;10.77;6.75;;;;;;;;;;4993499;28;20129;-81
2023/04/11 09:47:57;;;;;;;13.05;7.18;;;;;;;;;;4993459;28;20057;-82
2023/04/11 09:50:28;;;;;;;8.23;6.28;;;;;;;;;;4993485;28;20038;-81
2023/04/11 09:52:56;;;;;;;8.23;6.32;;;;;;;;;;4994613;28;20084;-80
2023/04/11 09:55:23;;;;;;;8.82;6.18;;;;;;;;;;4994562;28;20449;-79
2023/04/11 09:57:51;;;;;;;7.80;6.25;;;;;;;;;;4995376;28;20046;-78
2023/04/11 10:00:20;;;;;;;8.20;6.13;;;;;;;;;;4996072;28;20037;-80
2023/04/11 10:02:53;;;;;;;7.88;6.47;;;;;;;;;;4994877;28;20412;-80
2023/04/11 10:05:25;;;;;;;7.00;5.90;;;;;;;;;;4996187;28;20042;-80
2023/04/11 10:08:02;;;;;;;10.32;6.65;;;;;;;;;;4994483;28;20048;-78
2023/04/11 10:10:28;;;;;;;7.47;6.22;;;;;;;;;;4991094;28;20106;-83
2023/04/11 10:12:56;;;;;;;9.43;6.13;;;;;;;;;;4992782;28;20026;-82
2023/04/11 10:15:23;;;;;;;9.52;6.00;;;;;;;;;;4994743;28;20030;-79
2023/04/11 10:18:11;;;;;;;7.95;6.40;;;;;;;;;;4992292;28;20029;-80
2023/04/11 10:20:44;;;;;;;9.15;5.90;;;;;;;;;;4989775;28;20046;-80
2023/04/11 10:23:13;;;;;;;7.40;5.57;;;;;;;;;;4993701;28;20026;-81
2023/04/11 10:26:01;;;;;;;9.27;5.85;;;;;;;;;;5008609;28;20061;-82
2023/04/11 10:28:37;;;;;;;7.40;6.22;;;;;;;;;;4993797;28;20117;-81
2023/04/11 10:31:15;;;;;;;10.65;6.15;;;;;;;;;;4986418;28;20034;-78
2023/04/11 10:34:13;;;;;;;9.88;6.75;;;;;;;;;;4993984;28;20039;-78
2023/04/11 10:37:03;;;;;;;7.28;5.80;;;;;;;;;;4993193;28;20034;-78
2023/04/11 10:39:50;;;;;;;10.48;6.38;;;;;;;;;;4983542;28;20053;-80
2023/04/11 10:42:40;;;;;;;8.25;5.93;;;;;;;;;;4992875;28;20480;-80
2023/04/11 10:45:28;;;;;;;7.80;6.25;;;;;;;;;;4999522;28;20046;-78
2023/04/11 10:47:55;;;;;;;9.75;6.55;;;;;;;;;;4993019;28;20457;-80
2023/04/11 10:50:29;;;;;;;11.32;6.18;;;;;;;;;;4992243;28;20069;-80
2023/04/11 10:53:00;;;;;;;9.10;6.00;;;;;;;;;;4992972;28;20065;-79
2023/04/11 10:55:27;;;;;;;11.05;6.72;;;;;;;;;;4972146;28;20563;-79
2023/04/11 10:58:18;;;;;;;11.65;7.13;;;;;;;;;;4992556;28;20033;-80
2023/04/11 11:00:53;;;;;;;9.98;6.45;;;;;;;;;;4992699;28;20030;-77
2023/04/11 11:03:31;;;;;;;7.78;5.93;;;;;;;;;;4988607;28;20037;-79
2023/04/11 11:06:05;;;;;;;8.43;5.93;;;;;;;;;;4992506;28;20042;-79
2023/04/11 11:08:36;;;;;;;9.20;5.97;;;;;;;;;;4993181;28;20423;-79
2023/04/11 11:11:05;;;;;;;14.10;7.20;;;;;;;;;;4988136;28;20501;-77
2023/04/11 11:13:42;;;;;;;9.27;6.20;;;;;;;;;;4987317;28;20035;-78
2023/04/11 11:16:22;;;;;;;9.07;5.88;;;;;;;;;;4987610;28;20023;-82
2023/04/11 11:18:53;;;;;;;9.45;6.07;;;;;;;;;;4989919;28;20121;-82
2023/04/11 11:21:23;;;;;;;7.38;6.20;;;;;;;;;;4985231;28;20484;-79
2023/04/11 11:24:02;;;;;;;8.18;5.82;;;;;;;;;;4981908;28;20126;-78
2023/04/11 11:26:35;;;;;;;6.60;5.50;;;;;;;;;;4978028;28;20124;-79
2023/04/11 11:29:01;;;;;;;6.27;5.53;;;;;;;;;;4977202;28;20121;-79
2023/04/11 11:31:40;;;;;;;7.97;5.40;;;;;;;;;;4978334;28;20153;-78
2023/04/11 11:34:07;;;;;;;7.50;5.57;;;;;;;;;;4980037;28;20030;-80
2023/04/11 11:36:38;;;;;;;8.60;5.22;;;;;;;;;;4987432;28;20054;-79
2023/04/11 11:39:05;;;;;;;9.25;5.70;;;;;;;;;;4979621;28;20034;-79
2023/04/11 11:41:33;;;;;;;7.43;5.25;;;;;;;;;;4978376;28;20042;-79
2023/04/11 11:44:04;;;;;;;6.95;5.63;;;;;;;;;;4979221;28;20038;-80
2023/04/11 11:46:32;;;;;;;5.50;4.50;;;;;;;;;;4977712;28;20078;-79
2023/04/11 11:49:07;;;;;;;6.75;5.30;;;;;;;;;;4979996;28;20034;-78
2023/04/11 11:52:00;;;;;;;8.13;5.57;;;;;;;;;;4976539;28;20074;-78
2023/04/11 11:54:25;;;;;;;6.35;5.10;;;;;;;;;;4974745;28;20065;-80
2023/04/11 11:56:51;;;;;;;7.22;5.43;;;;;;;;;;4977935;28;20061;-80
2023/04/11 11:59:26;;;;;;;6.55;5.80;;;;;;;;;;4978653;28;20053;-79
2023/04/11 12:01:52;;;;;;;8.85;5.80;;;;;;;;;;4980329;28;20503;-78
2023/04/11 12:04:19;;;;;;;8.63;5.78;;;;;;;;;;4975450;28;20038;-79
2023/04/11 12:06:45;;;;;;;11.25;5.85;;;;;;;;;;4978507;28;20038;-78
2023/04/11 12:09:11;;;;;;;6.35;5.55;;;;;;;;;;4980888;28;20069;-78
2023/04/11 12:11:39;;;;;;;7.53;5.20;;;;;;;;;;4979346;28;20049;-79
2023/04/11 12:14:05;;;;;;;8.30;4.85;;;;;;;;;;4979350;28;20042;-78
2023/04/11 12:16:32;;;;;;;10.70;5.03;;;;;;;;;;4978928;28;20046;-80
2023/04/11 12:18:59;;;;;;;7.10;5.30;;;;;;;;;;4976057;28;20034;-77
2023/04/11 12:21:27;;;;;;;8.50;5.32;;;;;;;;;;4976006;28;20073;-81
2023/04/11 12:23:52;;;;;;;7.30;4.97;;;;;;;;;;4989402;28;20026;-79
2023/04/11 12:26:22;;;;;;;7.50;4.80;;;;;;;;;;4976562;28;20043;-77
2023/04/11 12:28:49;;;;;;;8.93;4.90;;;;;;;;;;4977871;28;20126;-78
2023/04/11 12:31:16;;;;;;;9.98;4.75;;;;;;;;;;4991884;28;20114;-78
2023/04/11 12:33:42;;;;;;;8.27;4.60;;;;;;;;;;4978514;28;20549;-77
2023/04/11 12:36:08;;;;;;;5.55;4.40;;;;;;;;;;4979166;28;20706;-79
2023/04/11 12:38:35;;;;;;;6.78;4.70;;;;;;;;;;4979014;28;20042;-78
2023/04/11 12:41:01;;;;;;;5.97;4.63;;;;;;;;;;4992538;28;20042;-79
2023/04/11 12:43:26;;;;;;;6.18;4.57;;;;;;;;;;4976976;28;20070;-79
2023/04/11 12:45:52;;;;;;;5.30;4.30;;;;;;;;;;4977409;28;20177;-78
2023/04/11 12:48:19;;;;;;;6.28;4.60;;;;;;;;;;4978478;28;20038;-78
2023/04/11 12:50:45;;;;;;;5.57;4.50;;;;;;;;;;4980910;28;20042;-77
2023/04/11 12:53:11;;;;;;;6.03;4.57;;;;;;;;;;4979962;28;20035;-77
2023/04/11 12:55:36;;;;;;;5.15;4.40;;;;;;;;;;4979953;28;20038;-77
2023/04/11 12:58:02;;;;;;;7.78;4.85;;;;;;;;;;4978740;28;20031;-79
2023/04/11 13:00:28;;;;;;;6.32;4.78;;;;;;;;;;4976425;28;20459;-77
2023/04/11 13:02:56;;;;;;;5.63;4.47;;;;;;;;;;4975681;28;20039;-78
2023/04/11 13:05:22;;;;;;;8.38;5.53;;;;;;;;;;4961205;28;20034;-77
2023/04/11 13:07:48;;;;;;;7.20;5.75;;;;;;;;;;4978717;28;20546;-78
2023/04/11 13:10:14;;;;;;;6.30;5.00;;;;;;;;;;4975801;28;20015;-77
2023/04/11 13:12:43;;;;;;;7.03;5.70;;;;;;;;;;4980095;28;20050;-77
2023/04/11 13:15:13;;;;;;;7.47;5.63;;;;;;;;;;4980072;28;20033;-79
2023/04/11 13:17:39;;;;;;;7.03;5.25;;;;;;;;;;4982048;28;20126;-78
2023/04/11 13:20:11;;;;;;;8.13;5.38;;;;;;;;;;4982080;28;20178;-76
2023/04/11 13:22:38;;;;;;;7.50;5.43;;;;;;;;;;4978215;28;20043;-78
2023/04/11 13:25:05;;;;;;;8.93;5.18;;;;;;;;;;4987757;28;20026;-77
2023/04/11 13:27:32;;;;;;;7.43;5.28;;;;;;;;;;4988468;28;20114;-78
2023/04/11 13:30:05;;;;;;;7.43;5.78;;;;;;;;;;4995162;28;20030;-78
2023/04/11 13:32:34;;;;;;;7.10;5.05;;;;;;;;;;4993113;28;20508;-76
2023/04/11 13:35:01;;;;;;;7.22;5.32;;;;;;;;;;4984905;28;20042;-76
2023/04/11 13:37:27;;;;;;;5.93;4.82;;;;;;;;;;4984731;28;20504;-77
2023/04/11 13:39:53;;;;;;;6.72;5.30;;;;;;;;;;4989727;28;20034;-78
2023/04/11 13:42:20;;;;;;;7.47;5.45;;;;;;;;;;4989822;28;20022;-79
2023/04/11 13:45:12;;;;;;;6.72;4.93;;;;;;;;;;4993343;28;20060;-79
2023/04/11 13:47:37;;;;;;;5.82;4.60;;;;;;;;;;5009321;28;20137;-79
2023/04/11 13:50:07;;;;;;;7.72;5.35;;;;;;;;;;4992856;28;20112;-81
2023/04/11 13:52:33;;;;;;;5.75;4.40;;;;;;;;;;4995040;28;20030;-78
2023/04/11 13:54:59;;;;;;;6.90;5.40;;;;;;;;;;4992604;28;20033;-79
2023/04/11 13:57:27;;;;;;;7.07;5.50;;;;;;;;;;4993923;28;20038;-80
2023/04/11 13:59:53;;;;;;;7.20;5.30;;;;;;;;;;4999960;28;20022;-79
2023/04/11 14:02:19;;;;;;;6.57;5.15;;;;;;;;;;5012318;28;20042;-80
2023/04/11 14:04:49;;;;;;;6.60;4.75;;;;;;;;;;5011922;28;20089;-78
2023/04/11 14:07:15;;;;;;;7.63;6.10;;;;;;;;;;5013593;28;20041;-80
2023/04/11 14:09:41;;;;;;;7.10;5.68;;;;;;;;;;4994024;28;20349;-80
2023/04/11 14:12:07;;;;;;;7.38;5.30;;;;;;;;;;4992478;28;20129;-80
2023/04/11 14:14:32;;;;;;;5.88;5.10;;;;;;;;;;4994412;28;20034;-79
2023/04/11 14:16:58;;;;;;;6.93;5.68;;;;;;;;;;4985595;28;20045;-80
2023/04/11 14:19:25;;;;;;;7.63;5.82;;;;;;;;;;4992924;28;20018;-80
2023/04/11 14:21:51;;;;;;;6.43;4.47;;;;;;;;;;5008702;28;20049;-79
2023/04/11 14:24:18;;;;;;;7.55;5.53;;;;;;;;;;4991521;28;20026;-79
2023/04/11 14:26:44;;;;;;;6.20;5.18;;;;;;;;;;4992542;28;20428;-80
2023/04/11 14:29:10;;;;;;;8.88;6.13;;;;;;;;;;4992036;28;20507;-80
2023/04/11 14:31:36;;;;;;;8.63;5.82;;;;;;;;;;4993360;28;20038;-79
2023/04/11 14:34:02;;;;;;;7.28;5.38;;;;;;;;;;4992851;28;20491;-81
2023/04/11 14:36:29;;;;;;;6.30;5.13;;;;;;;;;;4993276;28;20057;-78
2023/04/11 14:38:54;;;;;;;7.75;6.00;;;;;;;;;;4993051;28;20038;-79
2023/04/11 14:41:20;;;;;;;6.50;5.25;;;;;;;;;;4993620;28;20034;-79
2023/04/11 14:43:47;;;;;;;6.97;5.82;;;;;;;;;;5008809;28;20129;-80